Time;durP1;ratioP1;P1;durP2;ratioP2;P2;SDS_P1;SDS_P2;PMS_P1;PMS_P2;Temp;Humidity;BMP_temperature;BMP_pressure;BME280_temperature;BME280_humidity;BME280_pressure;Samples;Min_cycle;Max_cycle;Signal;HPM_P1;HPM_P2
2021/05/11 00:01:35;;;;;;;5.05;4.30;;;16.70;99.90;;;;;;5002927;28;20208;-39
2021/05/11 00:04:02;;;;;;;6.13;5.55;;;16.70;99.90;;;;;;5007837;28;20437;-39
2021/05/11 00:06:29;;;;;;;5.40;4.95;;;16.90;99.90;;;;;;5010187;28;20295;-40
2021/05/11 00:08:56;;;;;;;5.55;4.97;;;16.90;99.90;;;;;;5003834;28;20223;-39
2021/05/11 00:11:23;;;;;;;5.95;5.40;;;17.00;99.90;;;;;;4994857;28;20224;-39
2021/05/11 00:13:49;;;;;;;6.22;5.63;;;17.00;99.90;;;;;;5007497;28;20235;-39
2021/05/11 00:16:17;;;;;;;5.85;5.43;;;17.00;99.90;;;;;;5009304;28;20220;-39
2021/05/11 00:18:44;;;;;;;6.88;5.97;;;17.00;99.90;;;;;;5008023;28;20236;-40
2021/05/11 00:21:11;;;;;;;7.68;7.00;;;16.90;99.90;;;;;;5008626;28;20370;-38
2021/05/11 00:23:37;;;;;;;6.28;5.72;;;16.70;99.90;;;;;;5009408;28;20201;-41
2021/05/11 00:26:04;;;;;;;6.90;6.35;;;16.50;99.90;;;;;;5001859;28;20213;-40
2021/05/11 00:28:31;;;;;;;9.27;7.47;;;16.50;99.90;;;;;;4998825;28;20229;-40
2021/05/11 00:30:57;;;;;;;7.63;6.80;;;16.50;99.90;;;;;;4998482;28;20370;-39
2021/05/11 00:33:24;;;;;;;7.00;6.45;;;16.40;99.90;;;;;;4993798;28;20198;-39
2021/05/11 00:35:52;;;;;;;7.43;6.75;;;16.40;99.90;;;;;;5003657;28;20255;-39
2021/05/11 00:38:19;;;;;;;6.13;5.57;;;16.50;99.90;;;;;;4997716;28;20189;-40
2021/05/11 00:40:45;;;;;;;6.70;6.13;;;16.60;99.90;;;;;;5000254;28;20204;-39
2021/05/11 00:43:12;;;;;;;9.70;6.97;;;16.50;99.90;;;;;;4993206;28;20227;-38
2021/05/11 00:45:38;;;;;;;5.55;5.10;;;16.70;99.90;;;;;;5000261;28;20196;-42
2021/05/11 00:48:06;;;;;;;8.13;7.32;;;16.60;99.90;;;;;;4997116;28;20205;-39
2021/05/11 00:50:32;;;;;;;8.32;7.63;;;16.60;99.90;;;;;;5002523;28;20307;-39
2021/05/11 00:53:00;;;;;;;7.10;6.57;;;16.60;99.90;;;;;;5010847;28;20221;-37
2021/05/11 00:55:27;;;;;;;7.90;7.20;;;16.60;99.90;;;;;;4999011;28;20250;-37
2021/05/11 00:57:54;;;;;;;7.50;6.85;;;16.70;99.90;;;;;;5010425;28;20209;-38
2021/05/11 01:00:22;;;;;;;8.90;7.78;;;16.60;99.90;;;;;;5001182;28;20231;-39
2021/05/11 01:02:48;;;;;;;9.05;8.18;;;16.60;99.90;;;;;;5005346;28;20197;-39
2021/05/11 01:05:16;;;;;;;7.32;6.72;;;16.60;99.90;;;;;;5010158;28;20243;-40
2021/05/11 01:07:43;;;;;;;7.25;6.75;;;16.60;99.90;;;;;;5011622;28;20253;-39
2021/05/11 01:10:10;;;;;;;9.18;7.03;;;16.70;99.90;;;;;;4992636;28;20196;-39
2021/05/11 01:12:37;;;;;;;8.77;7.88;;;16.70;99.90;;;;;;5000393;28;20279;-38
2021/05/11 01:15:05;;;;;;;8.07;7.43;;;16.80;99.90;;;;;;4995964;28;20299;-38
2021/05/11 01:17:34;;;;;;;8.98;8.25;;;16.60;99.90;;;;;;5006839;28;20224;-38
2021/05/11 01:20:03;;;;;;;8.10;7.40;;;16.60;99.90;;;;;;5011640;28;20247;-40
2021/05/11 01:22:50;;;;;;;8.35;7.57;;;16.60;99.90;;;;;;4998370;28;20204;-38
2021/05/11 01:25:19;;;;;;;8.60;7.75;;;16.70;99.90;;;;;;4994862;28;20231;-40
2021/05/11 01:28:02;;;;;;;9.77;8.80;;;16.70;99.90;;;;;;4994792;28;20715;-39
2021/05/11 01:44:23;;;;;;;8.63;8.02;;;16.70;99.90;;;;;;5010200;28;20200;-38
2021/05/11 01:47:15;;;;;;;8.93;8.02;;;16.50;99.90;;;;;;4995841;28;20824;-38
2021/05/11 01:50:02;;;;;;;9.32;8.45;;;16.30;99.90;;;;;;4993686;28;20260;-38
2021/05/11 01:52:40;;;;;;;11.57;9.50;;;16.30;99.90;;;;;;4994763;28;20196;-39
2021/05/11 02:22:53;;;;;;;10.27;9.48;;;15.90;99.90;;;;;;4996731;28;20231;-39
2021/05/11 02:25:21;;;;;;;8.30;7.60;;;16.00;99.90;;;;;;5003919;28;20200;-40
2021/05/11 02:27:48;;;;;;;10.77;9.40;;;16.10;99.90;;;;;;5002179;28;20220;-40
2021/05/11 02:30:16;;;;;;;10.52;9.50;;;16.20;99.90;;;;;;5006994;28;20239;-39
2021/05/11 02:32:43;;;;;;;9.85;8.95;;;16.30;99.90;;;;;;4992565;28;20228;-39
2021/05/11 02:35:12;;;;;;;10.52;9.52;;;16.20;99.90;;;;;;4992737;28;20208;-40
2021/05/11 02:37:39;;;;;;;10.88;9.82;;;16.10;99.90;;;;;;4992278;28;20205;-39
2021/05/11 02:40:08;;;;;;;10.15;9.25;;;16.10;99.90;;;;;;4997233;28;20195;-39
2021/05/11 02:42:36;;;;;;;10.70;9.65;;;16.20;99.90;;;;;;5011070;28;20192;-39
2021/05/11 02:45:06;;;;;;;9.80;9.00;;;16.10;99.90;;;;;;4992925;28;20279;-41
2021/05/11 02:47:33;;;;;;;9.52;8.70;;;16.10;99.90;;;;;;5009002;28;20500;-39
2021/05/11 02:50:14;;;;;;;10.18;9.35;;;16.00;99.90;;;;;;5006350;28;20208;-39
2021/05/11 02:52:40;;;;;;;9.73;8.90;;;16.10;99.90;;;;;;4992372;28;20220;-40
2021/05/11 02:55:08;;;;;;;11.50;10.50;;;16.30;99.90;;;;;;4999691;28;20307;-39
2021/05/11 02:57:35;;;;;;;9.43;8.68;;;16.30;99.90;;;;;;4998683;28;20299;-39
2021/05/11 03:00:02;;;;;;;12.23;11.20;;;16.40;99.90;;;;;;4993655;28;20667;-39
2021/05/11 03:02:29;;;;;;;13.25;11.98;;;16.30;99.90;;;;;;5016546;28;20642;-41
2021/05/11 03:04:56;;;;;;;13.88;12.48;;;16.20;99.90;;;;;;5004511;28;20197;-39
2021/05/11 03:07:23;;;;;;;11.98;10.77;;;16.30;99.90;;;;;;4991940;28;20221;-40
2021/05/11 03:09:50;;;;;;;13.05;11.88;;;16.40;99.90;;;;;;4999391;28;20268;-39
2021/05/11 03:12:16;;;;;;;13.60;12.50;;;16.10;99.90;;;;;;4991675;28;20194;-39
2021/05/11 03:14:43;;;;;;;12.45;11.35;;;15.90;99.90;;;;;;5010607;28;20698;-40
2021/05/11 03:17:10;;;;;;;13.27;12.07;;;15.90;99.90;;;;;;4996477;28;20263;-39
2021/05/11 03:19:37;;;;;;;13.80;12.43;;;15.80;99.90;;;;;;4995026;28;20201;-41
2021/05/11 03:22:04;;;;;;;14.20;12.90;;;15.90;99.90;;;;;;4991898;28;20202;-39
2021/05/11 03:24:31;;;;;;;16.52;14.88;;;16.00;99.90;;;;;;4997244;28;20221;-41
2021/05/11 03:26:58;;;;;;;15.57;14.07;;;16.10;99.90;;;;;;5001956;28;20282;-39
2021/05/11 03:29:24;;;;;;;16.90;15.35;;;16.20;99.90;;;;;;5006094;28;20193;-39
2021/05/11 03:31:51;;;;;;;19.13;17.27;;;16.30;99.90;;;;;;4991456;28;20577;-40
2021/05/11 03:34:17;;;;;;;18.38;16.73;;;16.40;99.90;;;;;;4991581;28;20298;-39
2021/05/11 03:36:45;;;;;;;17.75;16.15;;;16.40;99.90;;;;;;4999106;28;20224;-39
2021/05/11 03:39:12;;;;;;;16.23;14.80;;;16.40;99.90;;;;;;5003543;28;20211;-39
2021/05/11 03:41:41;;;;;;;16.90;15.40;;;16.20;99.90;;;;;;4998902;28;20591;-39
2021/05/11 03:44:10;;;;;;;14.55;13.35;;;16.30;99.90;;;;;;4990697;28;20248;-39
2021/05/11 03:46:38;;;;;;;17.73;16.23;;;16.30;99.90;;;;;;5005839;28;20745;-39
2021/05/11 03:49:06;;;;;;;17.60;15.45;;;16.30;99.90;;;;;;5001214;28;20201;-39
2021/05/11 03:51:34;;;;;;;14.60;13.30;;;16.40;99.90;;;;;;5001870;28;20193;-39
2021/05/11 03:54:01;;;;;;;14.20;12.90;;;16.40;99.90;;;;;;4995025;28;20272;-39
2021/05/11 03:56:28;;;;;;;14.50;13.20;;;16.40;99.90;;;;;;5005767;28;20228;-40
2021/05/11 03:58:55;;;;;;;14.02;12.75;;;16.40;99.90;;;;;;5005108;28;20279;-39
2021/05/11 04:01:22;;;;;;;13.85;11.88;;;16.40;99.90;;;;;;5007520;28;20200;-40
2021/05/11 04:03:49;;;;;;;14.73;13.20;;;16.40;99.90;;;;;;5010213;28;20288;-39
2021/05/11 04:06:16;;;;;;;14.80;12.63;;;16.40;99.90;;;;;;5007081;28;20703;-42
2021/05/11 04:08:46;;;;;;;14.95;13.55;;;16.40;99.90;;;;;;5011120;28;20330;-39
2021/05/11 04:11:30;;;;;;;14.75;13.45;;;16.40;99.90;;;;;;4998815;28;20300;-42
2021/05/11 04:16:53;;;;;;;16.15;14.65;;;16.00;99.90;;;;;;4941288;29;20234;-39
2021/05/11 04:19:20;;;;;;;17.85;16.10;;;15.90;99.90;;;;;;4997342;28;20283;-39
2021/05/11 04:21:46;;;;;;;18.88;17.15;;;16.00;99.90;;;;;;4999607;28;20201;-41
2021/05/11 04:24:13;;;;;;;19.25;17.65;;;16.20;99.90;;;;;;4999254;28;20230;-38
2021/05/11 04:26:41;;;;;;;19.75;18.05;;;16.30;99.90;;;;;;4994987;28;20217;-41
2021/05/11 04:29:07;;;;;;;20.70;18.90;;;16.40;99.90;;;;;;4994470;28;20197;-41
2021/05/11 04:31:37;;;;;;;19.63;17.98;;;16.40;99.90;;;;;;5011564;28;20231;-41
2021/05/11 04:34:04;;;;;;;17.42;15.85;;;16.40;99.90;;;;;;5006376;28;20193;-39
2021/05/11 04:36:31;;;;;;;20.60;18.70;;;16.40;99.90;;;;;;5012842;28;20225;-43
2021/05/11 04:38:58;;;;;;;18.77;16.70;;;16.40;99.90;;;;;;4996278;28;20208;-39
2021/05/11 04:41:24;;;;;;;18.33;16.48;;;16.50;99.90;;;;;;4999706;28;20279;-41
2021/05/11 04:43:52;;;;;;;18.05;16.20;;;16.40;99.90;;;;;;5001394;28;20651;-38
2021/05/11 04:46:26;;;;;;;18.83;17.23;;;16.30;99.90;;;;;;5023313;23;20660;-41
2021/05/11 04:48:54;;;;;;;19.33;17.42;;;16.30;99.90;;;;;;4994839;28;20207;-39
2021/05/11 04:51:22;;;;;;;18.70;16.85;;;16.30;99.90;;;;;;5007944;28;20244;-38
2021/05/11 04:53:49;;;;;;;16.90;15.50;;;16.50;99.90;;;;;;5002063;28;20286;-37
2021/05/11 04:56:15;;;;;;;20.05;17.95;;;16.50;99.90;;;;;;5010144;28;20725;-39
2021/05/11 04:58:42;;;;;;;16.70;15.07;;;16.40;99.90;;;;;;4995995;28;20655;-38
2021/05/11 05:01:10;;;;;;;14.68;13.38;;;16.40;99.90;;;;;;4999850;28;20229;-39
2021/05/11 05:03:39;;;;;;;31.00;27.73;;;16.40;99.90;;;;;;4993735;28;20272;-38
2021/05/11 05:06:06;;;;;;;15.15;13.10;;;16.40;99.90;;;;;;4992414;28;20200;-37
2021/05/11 05:08:33;;;;;;;9.30;8.40;;;16.30;99.90;;;;;;5004182;28;20231;-38
2021/05/11 05:11:00;;;;;;;8.32;7.57;;;16.30;99.90;;;;;;4998452;28;20204;-39
2021/05/11 05:13:27;;;;;;;8.13;7.43;;;16.20;99.90;;;;;;4992519;28;20198;-39
2021/05/11 05:15:55;;;;;;;6.80;6.30;;;16.20;99.90;;;;;;5011476;28;20216;-38
2021/05/11 05:18:26;;;;;;;6.00;5.43;;;16.20;99.90;;;;;;5000277;28;20197;-38
2021/05/11 05:20:53;;;;;;;5.82;5.38;;;16.20;99.90;;;;;;5003239;28;20204;-38
2021/05/11 05:23:23;;;;;;;6.65;6.03;;;16.10;99.90;;;;;;5006927;28;20193;-38
2021/05/11 05:25:55;;;;;;;6.38;4.97;;;16.10;99.90;;;;;;5008224;28;20203;-40
2021/05/11 05:28:22;;;;;;;6.53;5.25;;;16.10;99.90;;;;;;4992507;28;20208;-38
2021/05/11 05:30:49;;;;;;;5.07;4.68;;;16.00;99.90;;;;;;5003894;28;20629;-38
2021/05/11 05:33:15;;;;;;;7.50;6.78;;;16.00;99.90;;;;;;4994919;28;20563;-38
2021/05/11 05:35:45;;;;;;;5.88;4.93;;;16.10;99.90;;;;;;5006984;28;20209;-38
2021/05/11 05:38:12;;;;;;;8.15;5.45;;;16.10;99.90;;;;;;5006452;28;20221;-38
2021/05/11 05:40:41;;;;;;;7.10;5.90;;;16.10;99.90;;;;;;5007411;28;20205;-39
2021/05/11 05:43:08;;;;;;;7.72;6.97;;;16.10;99.90;;;;;;4992554;28;20200;-39
2021/05/11 05:45:35;;;;;;;7.05;6.45;;;16.20;99.90;;;;;;4997182;28;20193;-39
2021/05/11 05:48:01;;;;;;;7.43;5.55;;;16.20;99.90;;;;;;4998136;28;20237;-39
2021/05/11 05:50:31;;;;;;;8.10;7.40;;;16.20;99.90;;;;;;4995384;28;20224;-40
2021/05/11 05:53:01;;;;;;;7.55;6.82;;;16.20;99.90;;;;;;4999503;28;20196;-38
2021/05/11 05:55:28;;;;;;;13.00;11.55;;;16.20;99.90;;;;;;4997741;28;20228;-38
2021/05/11 05:57:56;;;;;;;7.93;7.22;;;16.20;99.90;;;;;;5002033;28;20228;-38
2021/05/11 06:00:24;;;;;;;7.55;6.75;;;16.30;99.90;;;;;;5004788;28;20208;-38
2021/05/11 06:02:52;;;;;;;8.55;7.68;;;16.30;99.90;;;;;;4999965;28;20200;-39
2021/05/11 06:05:20;;;;;;;10.73;9.63;;;16.20;99.90;;;;;;5003282;28;20205;-40
2021/05/11 06:07:46;;;;;;;7.90;7.20;;;16.10;99.90;;;;;;5010432;28;20224;-38
2021/05/11 06:10:14;;;;;;;8.68;7.13;;;16.10;99.90;;;;;;5004479;28;20620;-39
2021/05/11 06:12:47;;;;;;;8.02;7.30;;;16.10;99.90;;;;;;4995783;28;20225;-38
2021/05/11 06:17:59;;;;;;;8.60;7.57;;;16.20;99.90;;;;;;5000991;28;20605;-40
2021/05/11 06:20:25;;;;;;;7.90;7.20;;;16.30;99.90;;;;;;4991594;28;20201;-38
2021/05/11 06:22:52;;;;;;;11.00;9.93;;;16.40;99.90;;;;;;4994449;28;20200;-39
2021/05/11 06:25:20;;;;;;;9.00;7.45;;;16.50;99.90;;;;;;4995969;28;20280;-39
2021/05/11 06:27:46;;;;;;;5.72;5.22;;;16.70;99.90;;;;;;5006562;28;20209;-40
2021/05/11 06:30:14;;;;;;;10.02;9.05;;;16.80;99.90;;;;;;4989375;28;20208;-40
2021/05/11 06:32:40;;;;;;;6.45;5.85;;;16.70;99.90;;;;;;5003998;28;20223;-39
2021/05/11 06:35:08;;;;;;;5.72;5.15;;;16.80;99.90;;;;;;5003717;28;20677;-39
2021/05/11 06:37:35;;;;;;;5.20;4.70;;;16.80;99.90;;;;;;4998312;28;20237;-40
2021/05/11 06:40:01;;;;;;;5.53;5.00;;;16.80;99.90;;;;;;4989731;28;20292;-39
2021/05/11 06:42:31;;;;;;;5.53;4.97;;;16.70;99.90;;;;;;4990682;28;20680;-38
2021/05/11 06:45:14;;;;;;;5.97;5.38;;;16.50;99.90;;;;;;4990969;28;20224;-40
2021/05/11 06:47:56;;;;;;;6.18;5.57;;;16.60;99.90;;;;;;5003376;28;20540;-39
2021/05/11 06:50:34;;;;;;;6.03;5.47;;;16.50;99.90;;;;;;4987305;28;20198;-39
2021/05/11 06:53:12;;;;;;;5.88;5.38;;;16.40;99.90;;;;;;4992424;28;20201;-39
2021/05/11 06:55:41;;;;;;;4.25;3.95;;;16.40;99.90;;;;;;4997645;28;20414;-39
2021/05/11 06:58:09;;;;;;;4.80;4.38;;;16.30;99.90;;;;;;5000628;28;20232;-39
2021/05/11 07:00:44;;;;;;;4.95;4.53;;;16.30;99.90;;;;;;4994726;28;20203;-39
2021/05/11 07:03:11;;;;;;;5.70;4.55;;;16.30;99.90;;;;;;5005379;28;20207;-39
2021/05/11 07:05:38;;;;;;;5.22;4.82;;;16.20;99.90;;;;;;5005574;28;20219;-39
2021/05/11 07:08:14;;;;;;;5.45;4.13;;;16.30;99.90;;;;;;4994276;28;20224;-39
2021/05/11 07:10:46;;;;;;;5.40;4.13;;;16.40;99.90;;;;;;5001881;28;20205;-39
2021/05/11 07:13:13;;;;;;;5.70;5.13;;;16.30;99.90;;;;;;4990879;28;20211;-40
2021/05/11 07:15:43;;;;;;;4.78;4.32;;;16.40;99.90;;;;;;4997373;28;20221;-39
2021/05/11 07:18:12;;;;;;;5.88;5.00;;;16.40;99.90;;;;;;4993040;28;20299;-39
2021/05/11 07:20:39;;;;;;;5.47;4.97;;;16.50;99.90;;;;;;4995790;28;20288;-39
2021/05/11 07:23:06;;;;;;;5.50;4.70;;;16.60;99.90;;;;;;4997577;28;20193;-40
2021/05/11 07:25:38;;;;;;;6.63;5.55;;;16.70;99.90;;;;;;4988227;28;20640;-41
2021/05/11 07:30:47;;;;;;;5.50;4.65;;;17.00;99.90;;;;;;4998002;28;20184;-40
2021/05/11 07:33:15;;;;;;;20.30;18.25;;;17.20;99.90;;;;;;4989282;28;20281;-39
2021/05/11 07:35:41;;;;;;;18.15;14.35;;;17.50;99.90;;;;;;5016779;28;20741;-39
2021/05/11 07:38:08;;;;;;;5.43;4.07;;;17.50;99.90;;;;;;4993605;28;20217;-39
2021/05/11 07:40:35;;;;;;;6.35;3.88;;;17.50;99.90;;;;;;4988675;28;20280;-39
2021/05/11 07:43:02;;;;;;;4.75;3.60;;;17.50;99.90;;;;;;4993897;28;20193;-39
2021/05/11 07:45:34;;;;;;;5.57;3.95;;;17.50;99.90;;;;;;4990569;28;20220;-39
2021/05/11 08:02:25;;;;;;;3.53;2.65;;;17.60;99.90;;;;;;4999862;28;20196;-40
2021/05/11 08:05:00;;;;;;;4.90;3.05;;;17.60;99.90;;;;;;4998829;28;20204;-40
2021/05/11 08:10:28;;;;;;;6.88;3.70;;;17.70;99.90;;;;;;4985962;28;20189;-40
2021/05/11 08:15:41;;;;;;;2.85;2.65;;;17.50;99.90;;;;;;4999895;28;20220;-40
2021/05/11 08:18:15;;;;;;;4.72;3.28;;;17.30;99.90;;;;;;4996372;28;20221;-39
2021/05/11 08:29:08;;;;;;;4.53;3.10;;;17.70;99.90;;;;;;5004418;28;20528;-40
2021/05/11 08:31:34;;;;;;;5.50;5.10;;;17.70;99.90;;;;;;5003011;28;20379;-40
2021/05/11 08:34:01;;;;;;;25.05;22.23;;;17.70;99.90;;;;;;5005723;28;20550;-40
2021/05/11 08:36:29;;;;;;;3.30;3.00;;;17.80;99.90;;;;;;5005329;28;20229;-40
2021/05/11 08:38:58;;;;;;;4.03;3.10;;;18.00;99.90;;;;;;4999918;28;20201;-40
2021/05/11 08:41:25;;;;;;;3.45;2.83;;;18.20;99.90;;;;;;5011084;28;20215;-39
2021/05/11 08:43:52;;;;;;;4.13;3.72;;;18.30;99.90;;;;;;5002525;28;20193;-40
2021/05/11 08:46:18;;;;;;;4.15;2.53;;;18.30;99.90;;;;;;4995028;28;20233;-40
2021/05/11 08:48:48;;;;;;;3.80;3.00;;;18.40;99.90;;;;;;4999138;28;20726;-41
2021/05/11 08:51:18;;;;;;;3.50;2.65;;;18.30;99.90;;;;;;5006460;28;20243;-40
2021/05/11 08:54:17;;;;;;;4.43;2.83;;;18.40;99.90;;;;;;5001298;28;20221;-38
2021/05/11 09:05:14;;;;;;;4.97;3.15;;;18.80;99.90;;;;;;4991765;28;20746;-38
2021/05/11 09:08:03;;;;;;;4.43;2.67;;;18.80;99.90;;;;;;4993103;28;20217;-40
2021/05/11 09:23:31;;;;;;;2.83;2.63;;;18.40;99.90;;;;;;4970845;28;20238;-38
2021/05/11 09:25:25;;;;;;;2.95;2.75;;;18.60;99.90;;;;;;5002994;28;20667;-38
2021/05/11 09:27:59;;;;;;;2.88;2.35;;;18.60;99.90;;;;;;4995647;28;20222;-38
2021/05/11 09:30:41;;;;;;;4.57;2.30;;;18.70;99.90;;;;;;5005477;28;20632;-39
2021/05/11 09:33:19;;;;;;;2.65;2.10;;;18.60;99.90;;;;;;5000428;28;20287;-39
2021/05/11 09:59:12;;;;;;;5.00;2.13;;;18.60;99.90;;;;;;4985437;28;20225;-39
2021/05/11 10:48:41;;;;;;;4.78;1.90;;;18.60;99.90;;;;;;5036321;23;20231;-39
2021/05/11 10:51:20;;;;;;;4.43;2.03;;;18.60;99.90;;;;;;5048341;28;20203;-39
2021/05/11 10:53:56;;;;;;;3.80;2.08;;;18.60;99.90;;;;;;5050350;28;20221;-40
2021/05/11 10:59:51;;;;;;;1.88;1.50;;;18.50;99.90;;;;;;5011533;28;20205;-41
2021/05/11 11:05:09;;;;;;;6.47;2.08;;;18.20;99.90;;;;;;5030151;28;20342;-39
2021/05/11 11:07:38;;;;;;;2.35;1.48;;;18.30;99.90;;;;;;5030957;28;20235;-39
2021/05/11 11:10:09;;;;;;;3.53;1.77;;;18.30;99.90;;;;;;5029557;28;20203;-39
2021/05/11 11:12:39;;;;;;;4.90;2.35;;;18.40;99.90;;;;;;5030736;28;20196;-40
2021/05/11 11:15:16;;;;;;;3.60;2.35;;;18.40;99.90;;;;;;5030485;28;20206;-39
2021/05/11 11:17:49;;;;;;;3.97;2.00;;;18.20;99.90;;;;;;5030211;28;21115;-43
2021/05/11 11:20:19;;;;;;;3.22;1.63;;;18.00;99.90;;;;;;5029767;28;20196;-41
2021/05/11 11:25:58;;;;;;;4.68;1.73;;;18.00;99.90;;;;;;5029243;28;20744;-39
2021/05/11 11:28:31;;;;;;;2.13;1.73;;;18.20;99.90;;;;;;5024874;28;20220;-42
2021/05/11 11:30:58;;;;;;;2.20;1.30;;;18.30;99.90;;;;;;5024448;28;20196;-38
2021/05/11 11:33:24;;;;;;;4.53;1.65;;;18.60;99.90;;;;;;5030377;28;20188;-38
2021/05/11 11:35:51;;;;;;;2.00;1.50;;;18.60;99.90;;;;;;5030057;28;20219;-39
2021/05/11 11:38:26;;;;;;;3.22;2.92;;;18.80;99.90;;;;;;5030295;28;20581;-39
2021/05/11 11:41:01;;;;;;;4.20;2.85;;;18.90;99.90;;;;;;5029902;28;20210;-39
2021/05/11 11:43:30;;;;;;;1.90;1.38;;;19.00;99.90;;;;;;5028732;28;20273;-40
2021/05/11 11:45:57;;;;;;;3.90;1.58;;;19.20;99.90;;;;;;5030395;28;20199;-42
2021/05/11 11:48:24;;;;;;;2.70;1.60;;;19.30;99.90;;;;;;5012407;28;20281;-39
2021/05/11 11:50:56;;;;;;;5.60;1.90;;;19.40;99.90;;;;;;5029668;28;20636;-42
2021/05/11 11:53:29;;;;;;;3.72;1.77;;;19.60;99.90;;;;;;5026079;28;20203;-39
2021/05/11 11:58:41;;;;;;;2.97;1.92;;;19.60;99.90;;;;;;5029414;28;20211;-42
2021/05/11 12:01:16;;;;;;;4.55;2.20;;;19.40;99.90;;;;;;5029275;28;20275;-42
2021/05/11 12:03:44;;;;;;;3.80;1.70;;;19.30;99.90;;;;;;5029833;28;20210;-39
2021/05/11 12:06:16;;;;;;;1.52;1.30;;;19.40;99.90;;;;;;5030275;28;20188;-40
2021/05/11 12:08:43;;;;;;;3.00;2.03;;;19.60;99.90;;;;;;5026057;28;20244;-40
2021/05/11 12:11:10;;;;;;;3.75;1.60;;;19.80;99.90;;;;;;5029707;28;20278;-40
2021/05/11 12:13:39;;;;;;;3.03;1.77;;;19.80;99.90;;;;;;5026966;28;20279;-40
2021/05/11 12:16:15;;;;;;;1.60;1.30;;;19.80;99.90;;;;;;5029924;28;20223;-39
2021/05/11 12:19:00;;;;;;;2.75;1.90;;;19.80;99.90;;;;;;5030174;28;20223;-42
2021/05/11 12:21:27;;;;;;;3.15;2.17;;;19.80;99.90;;;;;;5033149;28;20583;-39
2021/05/11 12:24:04;;;;;;;2.42;2.05;;;19.80;99.90;;;;;;5033430;28;20207;-39
2021/05/11 12:26:31;;;;;;;3.67;1.90;;;19.80;99.90;;;;;;5032195;28;20658;-39
2021/05/11 12:29:06;;;;;;;2.97;1.60;;;19.90;99.90;;;;;;5021760;28;20224;-42
2021/05/11 12:31:39;;;;;;;3.72;1.77;;;19.90;99.90;;;;;;5025996;28;20196;-39
2021/05/11 12:34:07;;;;;;;2.17;1.92;;;19.90;99.90;;;;;;5032940;28;20206;-41
2021/05/11 12:36:41;;;;;;;1.95;1.60;;;19.80;99.90;;;;;;5032479;28;20690;-42
2021/05/11 12:39:35;;;;;;;4.75;2.20;;;19.80;99.90;;;;;;5032615;28;20195;-41
2021/05/11 12:42:19;;;;;;;2.58;1.83;;;19.80;99.90;;;;;;5032660;28;20211;-41
2021/05/11 12:44:59;;;;;;;3.08;1.90;;;20.00;99.90;;;;;;5029127;28;20207;-41
2021/05/11 12:47:26;;;;;;;3.10;1.85;;;19.80;99.90;;;;;;5028832;28;20609;-41
2021/05/11 12:49:56;;;;;;;5.28;2.08;;;19.60;99.90;;;;;;5032960;28;20210;-41
2021/05/11 12:52:28;;;;;;;5.82;2.05;;;19.60;99.90;;;;;;5024438;28;20219;-40
2021/05/11 12:54:56;;;;;;;3.28;2.10;;;19.70;99.90;;;;;;5031664;28;20666;-39
2021/05/11 12:57:34;;;;;;;5.28;2.15;;;19.60;99.90;;;;;;5031610;28;20258;-39
2021/05/11 13:00:07;;;;;;;3.58;2.47;;;19.60;99.90;;;;;;5031593;28;20747;-42
2021/05/11 13:02:42;;;;;;;86.00;70.45;;;19.60;99.90;;;;;;5030764;28;20214;-38
2021/05/11 13:16:28;;;;;;;2.90;2.15;;;19.50;99.90;;;;;;4997648;28;20496;-38
2021/05/11 13:27:26;;;;;;;3.85;1.92;;;19.30;99.90;;;;;;5032101;28;20227;-38
2021/05/11 13:30:05;;;;;;;4.40;2.60;;;19.10;99.90;;;;;;5031350;28;20238;-39
2021/05/11 13:32:44;;;;;;;2.55;2.35;;;19.40;99.90;;;;;;5030561;28;20564;-38
2021/05/11 13:35:11;;;;;;;6.30;2.33;;;19.30;99.90;;;;;;5031961;28;20282;-38
2021/05/11 13:37:38;;;;;;;2.45;1.80;;;19.40;99.90;;;;;;5031806;28;20232;-39
2021/05/11 13:40:06;;;;;;;3.83;2.00;;;19.40;99.90;;;;;;5031304;28;20196;-39
2021/05/11 13:42:34;;;;;;;4.47;2.50;;;19.40;99.90;;;;;;5030993;28;20296;-41
2021/05/11 13:45:00;;;;;;;4.75;2.38;;;19.40;99.90;;;;;;5031816;28;20195;-39
2021/05/11 13:47:27;;;;;;;3.03;2.40;;;19.40;99.90;;;;;;5031522;28;20227;-38
2021/05/11 13:49:56;;;;;;;3.67;2.20;;;19.50;99.90;;;;;;5031148;28;20479;-39
2021/05/11 13:52:24;;;;;;;3.88;2.70;;;19.30;99.90;;;;;;5031320;28;20196;-40
2021/05/11 13:54:55;;;;;;;3.08;2.08;;;19.30;99.90;;;;;;5031213;28;20279;-38
2021/05/11 13:57:31;;;;;;;3.78;1.88;;;19.40;99.90;;;;;;5031390;28;20310;-39
2021/05/11 14:02:48;;;;;;;2.92;2.00;;;19.30;99.90;;;;;;5030876;28;20717;-38
2021/05/11 14:05:16;;;;;;;4.05;2.30;;;19.20;99.90;;;;;;5027422;28;20193;-40
2021/05/11 14:07:44;;;;;;;3.70;2.42;;;19.10;99.90;;;;;;5021766;28;20207;-41
2021/05/11 14:10:11;;;;;;;4.25;1.95;;;19.00;99.90;;;;;;5024069;28;20578;-38
2021/05/11 14:12:38;;;;;;;4.30;2.15;;;18.90;99.90;;;;;;5028526;28;20192;-40
2021/05/11 14:15:06;;;;;;;5.03;3.00;;;19.00;99.90;;;;;;5020589;28;20205;-40
2021/05/11 14:17:33;;;;;;;4.60;2.97;;;19.00;99.90;;;;;;5029796;28;20216;-41
2021/05/11 14:20:00;;;;;;;3.70;2.58;;;19.10;99.90;;;;;;5030679;28;20274;-42
2021/05/11 14:22:28;;;;;;;2.13;1.90;;;18.70;99.90;;;;;;5029085;28;20200;-39
2021/05/11 14:24:55;;;;;;;6.18;2.50;;;18.80;99.90;;;;;;5028518;28;20219;-40
2021/05/11 14:27:22;;;;;;;2.60;2.40;;;18.70;99.90;;;;;;5024741;28;20755;-39
2021/05/11 14:29:49;;;;;;;4.00;2.60;;;18.60;99.90;;;;;;5025392;28;20188;-40
2021/05/11 14:32:15;;;;;;;4.72;2.88;;;18.60;99.90;;;;;;5029696;28;20608;-39
2021/05/11 14:34:42;;;;;;;4.57;2.45;;;18.50;99.90;;;;;;5027644;28;20200;-39
2021/05/11 14:37:09;;;;;;;4.35;2.60;;;18.60;99.90;;;;;;5030806;28;20219;-40
2021/05/11 14:39:35;;;;;;;4.88;2.45;;;18.50;99.90;;;;;;5030383;28;20218;-39
2021/05/11 14:42:03;;;;;;;4.32;2.53;;;18.40;99.90;;;;;;5030253;28;20202;-39
2021/05/11 14:44:30;;;;;;;3.13;2.30;;;18.50;99.90;;;;;;5029617;28;20279;-39
2021/05/11 14:46:57;;;;;;;5.32;2.85;;;18.60;99.90;;;;;;5030294;28;20773;-40
2021/05/11 14:49:24;;;;;;;3.63;2.28;;;18.50;99.90;;;;;;5030870;28;20194;-42
2021/05/11 14:51:51;;;;;;;4.72;2.42;;;18.60;99.90;;;;;;5030271;28;20585;-39
2021/05/11 14:54:17;;;;;;;5.40;3.08;;;18.50;99.90;;;;;;5030266;28;20334;-41
2021/05/11 14:56:44;;;;;;;3.67;2.53;;;18.40;99.90;;;;;;5029409;28;20585;-38
2021/05/11 14:59:12;;;;;;;5.30;3.75;;;18.30;99.90;;;;;;5029459;28;20204;-39
2021/05/11 15:01:39;;;;;;;3.78;2.40;;;18.40;99.90;;;;;;5029857;28;20203;-38
2021/05/11 15:04:06;;;;;;;6.97;3.58;;;18.60;99.90;;;;;;5030266;28;20204;-41
2021/05/11 15:06:33;;;;;;;11.25;6.60;;;18.60;99.90;;;;;;5030575;28;20180;-38
2021/05/11 15:09:01;;;;;;;4.97;3.17;;;18.70;99.90;;;;;;5028060;28;20606;-40
2021/05/11 15:11:27;;;;;;;7.03;4.78;;;18.30;99.90;;;;;;5029542;28;20223;-39
2021/05/11 15:13:57;;;;;;;6.65;5.30;;;18.30;99.90;;;;;;5030150;28;20219;-38
2021/05/11 15:16:25;;;;;;;9.80;7.18;;;18.30;99.90;;;;;;5030357;28;20266;-39
2021/05/11 15:18:52;;;;;;;9.20;4.90;;;18.30;99.90;;;;;;5029953;28;20282;-40
2021/05/11 15:21:19;;;;;;;9.10;3.63;;;18.30;99.90;;;;;;5029368;28;20615;-38
2021/05/11 15:23:47;;;;;;;4.35;3.90;;;18.20;99.90;;;;;;5028690;28;20200;-39
2021/05/11 15:26:16;;;;;;;4.15;2.75;;;18.20;99.90;;;;;;5019929;28;20184;-41
2021/05/11 15:28:43;;;;;;;6.55;3.17;;;18.20;99.90;;;;;;5017646;28;20221;-39
2021/05/11 15:31:11;;;;;;;5.95;2.97;;;18.10;99.90;;;;;;5023360;28;20596;-40
2021/05/11 15:33:38;;;;;;;6.78;2.70;;;18.10;99.90;;;;;;5023131;28;20196;-39
2021/05/11 15:36:06;;;;;;;9.77;5.45;;;18.20;99.90;;;;;;5030190;28;20244;-39
2021/05/11 15:38:32;;;;;;;6.13;3.30;;;18.20;99.90;;;;;;5029880;28;20226;-40
2021/05/11 15:40:59;;;;;;;4.97;2.70;;;18.30;99.90;;;;;;5029602;28;20546;-39
2021/05/11 15:43:26;;;;;;;3.90;2.92;;;18.20;99.90;;;;;;5029667;28;20614;-38
2021/05/11 15:45:53;;;;;;;3.30;2.78;;;18.30;99.90;;;;;;5029880;28;20207;-39
2021/05/11 15:48:20;;;;;;;4.38;2.78;;;18.30;99.90;;;;;;5030066;28;20282;-38
2021/05/11 15:50:48;;;;;;;4.32;2.42;;;18.20;99.90;;;;;;5028122;28;20234;-42
2021/05/11 15:53:16;;;;;;;5.45;3.20;;;18.10;99.90;;;;;;5023917;28;20200;-40
2021/05/11 15:55:46;;;;;;;6.05;2.85;;;18.10;99.90;;;;;;5023913;28;20197;-40
2021/05/11 15:58:14;;;;;;;5.60;3.58;;;18.20;99.90;;;;;;5024445;28;20218;-42
2021/05/11 16:00:42;;;;;;;6.10;4.03;;;18.20;99.90;;;;;;5033248;28;20208;-41
2021/05/11 16:03:10;;;;;;;5.53;3.47;;;18.10;99.90;;;;;;5033274;28;20222;-40
2021/05/11 16:05:38;;;;;;;3.85;3.55;;;18.10;99.90;;;;;;5033524;28;20671;-40
2021/05/11 16:08:06;;;;;;;5.57;3.08;;;18.10;99.90;;;;;;5033486;28;20227;-40
2021/05/11 16:10:34;;;;;;;6.35;4.80;;;18.20;99.90;;;;;;5033194;28;20245;-40
2021/05/11 16:13:01;;;;;;;7.60;3.65;;;18.10;99.90;;;;;;5033276;28;20211;-39
2021/05/11 16:15:28;;;;;;;4.00;3.40;;;18.10;99.90;;;;;;5024540;28;20585;-38
2021/05/11 16:17:55;;;;;;;12.35;9.38;;;17.90;99.90;;;;;;5026398;28;20303;-38